Time;durP1;ratioP1;P1;durP2;ratioP2;P2;SDS_P1;SDS_P2;PMS_P1;PMS_P2;Temp;Humidity;BMP_temperature;BMP_pressure;BME280_temperature;BME280_humidity;BME280_pressure;Samples;Min_cycle;Max_cycle;Signal;HPM_P1;HPM_P2
2022/10/03 00:00:28;;;;;;;;;;;;;;;17.63;46.31;99756.34;5099402;28;19987;-74
2022/10/03 00:03:11;;;;;;;;;;;;;;;17.48;46.35;99754.69;5100375;28;19924;-74
2022/10/03 00:05:55;;;;;;;;;;;;;;;17.64;46.28;99748.09;5100699;28;19920;-74
2022/10/03 00:08:32;;;;;;;;;;;;;;;17.46;46.47;99748.72;5102423;28;19916;-74
2022/10/03 00:10:57;;;;;;;;;;;;;;;17.32;46.84;99746.25;5100568;28;19916;-74
2022/10/03 00:13:24;;;;;;;;;;;;;;;17.41;46.65;99743.16;5099334;28;19927;-74
2022/10/03 00:16:08;;;;;;;;;;;;;;;17.52;45.99;99739.88;5101490;28;19916;-74
2022/10/03 00:18:47;;;;;;;;;;;;;;;17.49;46.07;99736.78;5098744;28;19943;-74
2022/10/03 00:21:21;;;;;;;;;;;;;;;17.34;46.71;99731.63;5101516;28;19933;-74
2022/10/03 00:23:56;;;;;;;;;;;;;;;17.27;47.00;99735.34;5101296;28;19935;-74
2022/10/03 00:26:41;;;;;;;;;;;;;;;17.18;47.33;99732.88;5102691;28;19938;-74
2022/10/03 00:29:13;;;;;;;;;;;;;;;17.10;47.68;99735.75;5100861;28;19915;-74
2022/10/03 00:32:04;;;;;;;;;;;;;;;17.24;47.52;99732.06;5095858;28;19916;-74
2022/10/03 00:34:48;;;;;;;;;;;;;;;17.34;47.16;99731.63;5097652;28;19916;-74
2022/10/03 00:37:42;;;;;;;;;;;;;;;17.25;47.33;99724.84;5098730;28;19911;-73
2022/10/03 00:40:23;;;;;;;;;;;;;;;17.26;47.11;99728.34;5081513;28;19917;-74
2022/10/03 00:42:51;;;;;;;;;;;;;;;17.36;47.04;99720.72;5099493;28;19912;-74
2022/10/03 00:45:25;;;;;;;;;;;;;;;17.54;46.50;99719.06;5098386;28;19923;-73
2022/10/03 00:48:09;;;;;;;;;;;;;;;17.56;46.28;99719.69;5098344;28;19934;-73
2022/10/03 00:50:43;;;;;;;;;;;;;;;17.84;45.59;99708.78;5097174;28;19923;-74
2022/10/03 00:53:23;;;;;;;;;;;;;;;17.75;46.30;99719.91;5098907;28;19918;-73
2022/10/03 00:55:57;;;;;;;;;;;;;;;17.77;46.18;99720.53;5094702;28;19922;-73
2022/10/03 00:58:22;;;;;;;;;;;;;;;17.69;46.28;99713.53;5100017;28;19912;-73
2022/10/03 01:00:51;;;;;;;;;;;;;;;17.65;47.04;99714.94;5099676;28;19938;-73
2022/10/03 01:03:29;;;;;;;;;;;;;;;17.62;46.92;99707.31;5101557;28;20132;-73
2022/10/03 01:05:57;;;;;;;;;;;;;;;17.60;46.38;99696.00;5098898;28;19924;-74
2022/10/03 01:08:22;;;;;;;;;;;;;;;17.56;46.57;99692.91;5098677;28;19912;-73
2022/10/03 01:10:47;;;;;;;;;;;;;;;17.74;46.22;99692.31;5099273;28;19999;-73
2022/10/03 01:13:13;;;;;;;;;;;;;;;17.63;45.95;99694.75;5098702;28;19919;-73
2022/10/03 01:15:55;;;;;;;;;;;;;;;17.53;46.15;99695.19;5099437;28;19930;-73
2022/10/03 01:18:31;;;;;;;;;;;;;;;17.55;46.01;99690.44;5099505;28;19911;-73
2022/10/03 01:21:03;;;;;;;;;;;;;;;17.41;46.48;99692.31;5099889;28;19916;-73
2022/10/03 01:23:47;;;;;;;;;;;;;;;17.48;46.27;99690.44;5100937;28;20173;-73
2022/10/03 01:26:21;;;;;;;;;;;;;;;17.53;46.61;99690.66;5098680;28;19987;-73
2022/10/03 01:32:09;;;;;;;;;;;;;;;17.58;46.20;99692.69;5103220;28;19922;-73
2022/10/03 01:34:44;;;;;;;;;;;;;;;17.53;46.23;99689.81;5102021;28;19923;-73
2022/10/03 01:37:31;;;;;;;;;;;;;;;17.34;46.58;99675.44;5102062;28;19920;-73
2022/10/03 01:40:07;;;;;;;;;;;;;;;17.65;45.43;99677.44;5117226;28;20194;-73
2022/10/03 01:42:44;;;;;;;;;;;;;;;17.44;45.56;99675.84;5084649;28;19957;-73
2022/10/03 01:45:25;;;;;;;;;;;;;;;17.55;45.48;99674.38;5101259;28;20186;-73
2022/10/03 01:48:00;;;;;;;;;;;;;;;17.43;45.90;99671.50;5102941;28;20192;-73
2022/10/03 01:50:29;;;;;;;;;;;;;;;17.66;45.39;99665.72;5103378;28;20213;-73
2022/10/03 01:52:54;;;;;;;;;;;;;;;17.66;45.49;99670.22;5103937;28;19920;-74
2022/10/03 01:55:22;;;;;;;;;;;;;;;17.56;45.85;99671.50;5100420;28;19916;-73
2022/10/03 01:58:06;;;;;;;;;;;;;;;17.52;46.15;99675.63;5099055;28;19983;-73
2022/10/03 02:00:54;;;;;;;;;;;;;;;17.42;46.49;99671.72;5101732;28;19916;-73
2022/10/03 02:03:22;;;;;;;;;;;;;;;17.66;46.11;99675.59;5099697;28;19952;-73
2022/10/03 02:05:59;;;;;;;;;;;;;;;17.52;46.29;99672.94;5102376;28;20194;-73
2022/10/03 02:08:39;;;;;;;;;;;;;;;17.58;46.43;99673.97;5101840;28;19970;-73
2022/10/03 02:11:09;;;;;;;;;;;;;;;17.68;46.50;99668.19;5103582;28;20028;-73
2022/10/03 02:13:35;;;;;;;;;;;;;;;17.79;46.19;99672.94;5102403;28;19912;-73
2022/10/03 02:16:27;;;;;;;;;;;;;;;17.68;46.48;99670.88;5100052;28;19923;-73
2022/10/03 02:19:05;;;;;;;;;;;;;;;17.46;46.74;99679.13;5096578;28;19912;-73
2022/10/03 02:21:32;;;;;;;;;;;;;;;17.46;47.14;99680.97;5101902;28;19916;-73
2022/10/03 02:24:19;;;;;;;;;;;;;;;17.58;46.99;99681.16;5101747;28;19939;-73
2022/10/03 02:26:53;;;;;;;;;;;;;;;17.24;47.75;99683.88;5100551;28;21101;-73
2022/10/03 02:29:21;;;;;;;;;;;;;;;17.45;47.32;99682.00;5103719;28;19923;-73
2022/10/03 02:31:49;;;;;;;;;;;;;;;17.52;46.76;99688.19;5103766;28;19908;-73
2022/10/03 02:34:21;;;;;;;;;;;;;;;17.11;47.82;99675.03;5102063;28;19953;-73
2022/10/03 02:36:47;;;;;;;;;;;;;;;17.01;48.11;99677.28;5102018;28;19920;-73
2022/10/03 02:39:12;;;;;;;;;;;;;;;17.09;48.44;99685.94;5100299;28;20112;-73
2022/10/03 02:41:56;;;;;;;;;;;;;;;16.92;48.58;99688.19;5101990;28;19947;-73
2022/10/03 02:44:40;;;;;;;;;;;;;;;16.51;49.99;99687.44;5100807;28;20198;-73
2022/10/03 02:47:14;;;;;;;;;;;;;;;16.37;50.38;99685.75;5102680;28;19978;-73
2022/10/03 02:49:43;;;;;;;;;;;;;;;16.43;50.53;99683.09;5103482;28;19995;-74
2022/10/03 02:52:09;;;;;;;;;;;;;;;16.56;49.99;99683.13;5103391;28;19908;-73
2022/10/03 02:54:43;;;;;;;;;;;;;;;16.43;50.79;99672.41;5099940;28;20234;-73
2022/10/03 02:57:08;;;;;;;;;;;;;;;16.38;50.26;99676.72;5100494;28;19947;-73
2022/10/03 02:59:34;;;;;;;;;;;;;;;16.36;50.86;99668.91;5103406;28;19939;-73
2022/10/03 03:02:05;;;;;;;;;;;;;;;16.43;50.52;99666.25;5102431;28;19961;-73
2022/10/03 03:04:42;;;;;;;;;;;;;;;16.46;50.51;99660.50;5101075;28;19955;-73
2022/10/03 03:07:21;;;;;;;;;;;;;;;16.39;50.37;99662.34;5098823;28;20126;-73
2022/10/03 03:09:49;;;;;;;;;;;;;;;16.39;50.06;99657.00;5102914;28;20431;-73
2022/10/03 03:12:30;;;;;;;;;;;;;;;16.56;49.40;99645.72;5102013;28;19920;-73
2022/10/03 03:15:18;;;;;;;;;;;;;;;16.46;49.86;99658.66;5100890;28;19916;-73
2022/10/03 03:17:44;;;;;;;;;;;;;;;16.35;49.74;99647.72;5102858;28;20186;-73
2022/10/03 03:20:27;;;;;;;;;;;;;;;16.42;50.01;99649.38;5099897;28;19995;-73
2022/10/03 03:22:58;;;;;;;;;;;;;;;16.42;49.75;99640.56;5100903;28;19962;-73
2022/10/03 03:25:26;;;;;;;;;;;;;;;16.45;49.95;99637.47;5099912;28;19930;-73
2022/10/03 03:28:02;;;;;;;;;;;;;;;16.47;50.02;99630.91;5097841;28;19918;-74
2022/10/03 03:30:46;;;;;;;;;;;;;;;16.38;49.72;99625.94;5100762;28;20192;-73
2022/10/03 03:33:23;;;;;;;;;;;;;;;16.32;49.87;99629.44;5100854;28;20197;-74
2022/10/03 03:36:02;;;;;;;;;;;;;;;16.46;49.74;99623.91;5099314;28;20190;-73
2022/10/03 03:38:29;;;;;;;;;;;;;;;16.45;49.85;99616.91;5099315;28;20440;-73
2022/10/03 03:41:05;;;;;;;;;;;;;;;16.56;49.45;99612.81;5102458;28;20129;-73
2022/10/03 03:43:49;;;;;;;;;;;;;;;16.72;49.77;99609.00;5101810;28;19923;-73
2022/10/03 03:46:34;;;;;;;;;;;;;;;16.84;49.33;99613.53;5102288;28;19916;-73
2022/10/03 03:49:28;;;;;;;;;;;;;;;16.63;50.21;99612.81;5102116;28;19919;-73
2022/10/03 03:52:26;;;;;;;;;;;;;;;16.38;50.79;99608.06;5096486;28;19916;-73
2022/10/03 03:55:05;;;;;;;;;;;;;;;16.78;49.84;99609.00;5099661;28;19938;-73
2022/10/03 03:57:42;;;;;;;;;;;;;;;16.70;50.15;99601.16;5099421;28;20187;-73
2022/10/03 04:00:15;;;;;;;;;;;;;;;16.56;50.20;99605.63;5097470;28;19955;-73
2022/10/03 04:03:00;;;;;;;;;;;;;;;16.58;50.26;99597.41;5097272;28;20180;-72
2022/10/03 04:05:34;;;;;;;;;;;;;;;16.44;49.88;99609.09;5098814;28;19938;-73
2022/10/03 04:08:22;;;;;;;;;;;;;;;16.31;50.73;99595.72;5102381;28;19916;-73
2022/10/03 04:11:06;;;;;;;;;;;;;;;16.50;49.93;99598.41;5100096;28;20213;-73
2022/10/03 04:13:35;;;;;;;;;;;;;;;16.58;49.55;99598.22;5098347;28;19912;-73
2022/10/03 04:18:56;;;;;;;;;;;;;;;16.34;49.60;99596.13;5100786;28;19981;-73
2022/10/03 04:19:10;;;;;;;;;;;;;;;16.39;50.12;99599.03;5101997;28;19958;-73
2022/10/03 04:21:41;;;;;;;;;;;;;;;16.50;50.06;99582.38;5099508;28;19938;-73
2022/10/03 04:24:06;;;;;;;;;;;;;;;16.76;49.48;99568.28;5099543;28;19919;-74
2022/10/03 04:26:50;;;;;;;;;;;;;;;16.76;49.03;99568.28;5099880;28;19916;-73
2022/10/03 04:29:29;;;;;;;;;;;;;;;16.63;49.32;99573.56;5096330;28;19923;-73
2022/10/03 04:32:13;;;;;;;;;;;;;;;16.61;49.44;99588.97;5099382;28;19920;-73
2022/10/03 04:34:38;;;;;;;;;;;;;;;16.61;49.37;99592.47;5101625;28;19987;-73
2022/10/03 04:37:04;;;;;;;;;;;;;;;16.78;49.10;99590.28;5101324;28;19931;-73
2022/10/03 04:39:41;;;;;;;;;;;;;;;16.84;48.44;99580.59;5100112;28;19934;-73
2022/10/03 04:42:20;;;;;;;;;;;;;;;16.87;48.14;99580.19;5102206;28;19914;-73
2022/10/03 04:44:48;;;;;;;;;;;;;;;16.83;48.40;99586.97;5099255;28;20029;-73
2022/10/03 04:47:18;;;;;;;;;;;;;;;17.11;47.80;99584.06;5098580;28;20080;-73
2022/10/03 04:49:46;;;;;;;;;;;;;;;17.21;47.61;99589.81;5081111;28;19924;-73
2022/10/03 04:52:17;;;;;;;;;;;;;;;17.07;48.55;99602.41;5080967;28;19997;-73
2022/10/03 04:55:04;;;;;;;;;;;;;;;17.17;48.42;99607.31;5101867;28;19919;-73
2022/10/03 04:57:35;;;;;;;;;;;;;;;17.00;48.46;99603.44;5099007;28;19949;-73
2022/10/03 05:00:24;;;;;;;;;;;;;;;16.81;48.64;99597.88;5098456;28;20028;-73
2022/10/03 05:02:50;;;;;;;;;;;;;;;16.55;49.94;99598.63;5091649;28;19924;-73
2022/10/03 05:05:38;;;;;;;;;;;;;;;16.51;49.60;99599.25;5102619;28;19916;-74
2022/10/03 05:08:06;;;;;;;;;;;;;;;16.68;49.47;99599.72;5100906;28;19916;-73
2022/10/03 05:10:37;;;;;;;;;;;;;;;16.54;50.23;99596.16;5103882;28;19923;-73
2022/10/03 05:13:11;;;;;;;;;;;;;;;16.64;50.08;99596.59;5103665;28;19957;-73
2022/10/03 05:15:43;;;;;;;;;;;;;;;16.54;50.54;99601.50;5102321;28;19915;-73
2022/10/03 05:18:17;;;;;;;;;;;;;;;16.58;50.64;99594.72;5102616;28;19923;-73
2022/10/03 05:20:55;;;;;;;;;;;;;;;16.83;50.06;99603.84;5101774;28;19954;-73
2022/10/03 05:23:38;;;;;;;;;;;;;;;16.97;50.04;99606.53;5102549;28;19924;-73
2022/10/03 05:26:13;;;;;;;;;;;;;;;16.90;50.34;99611.88;5102462;28;20083;-73
2022/10/03 05:28:41;;;;;;;;;;;;;;;17.02;50.55;99610.22;5117279;28;19973;-74
2022/10/03 05:31:25;;;;;;;;;;;;;;;16.83;50.98;99603.03;5101066;28;19973;-73
2022/10/03 05:34:00;;;;;;;;;;;;;;;16.82;51.46;99604.88;5100736;28;19912;-73
2022/10/03 05:36:51;;;;;;;;;;;;;;;16.80;51.69;99601.59;5100413;28;19915;-74
2022/10/03 05:39:35;;;;;;;;;;;;;;;16.83;51.42;99597.69;5077509;28;19920;-73
2022/10/03 05:42:19;;;;;;;;;;;;;;;16.90;51.15;99595.81;5105171;28;19950;-73
2022/10/03 05:44:50;;;;;;;;;;;;;;;16.95;51.24;99601.38;5104756;28;19916;-73
2022/10/03 05:47:44;;;;;;;;;;;;;;;16.85;51.49;99606.31;5113085;28;19920;-73
2022/10/03 05:50:27;;;;;;;;;;;;;;;17.08;51.34;99606.72;5104764;28;19928;-73
2022/10/03 05:52:53;;;;;;;;;;;;;;;17.23;51.30;99601.97;5110199;28;20102;-73
2022/10/03 05:55:36;;;;;;;;;;;;;;;17.47;50.60;99591.63;5104398;28;19954;-73
2022/10/03 05:58:21;;;;;;;;;;;;;;;17.45;50.47;99594.50;5105052;28;20082;-73
2022/10/03 06:00:56;;;;;;;;;;;;;;;17.54;50.77;99600.44;5118467;28;20205;-73
2022/10/03 06:03:39;;;;;;;;;;;;;;;17.70;49.60;99601.91;5105128;28;19959;-73
2022/10/03 06:06:19;;;;;;;;;;;;;;;17.63;49.58;99598.34;5120282;28;19916;-73
2022/10/03 06:09:01;;;;;;;;;;;;;;;17.73;49.04;99596.94;5105017;28;19934;-73
2022/10/03 06:11:41;;;;;;;;;;;;;;;18.05;48.37;99591.66;5104086;28;19920;-74
2022/10/03 06:14:06;;;;;;;;;;;;;;;18.09;48.12;99592.88;5104702;28;19912;-74
2022/10/03 06:16:50;;;;;;;;;;;;;;;18.29;47.82;99592.75;5108105;28;19954;-73
2022/10/03 06:19:19;;;;;;;;;;;;;;;18.27;47.76;99598.31;5104407;28;19916;-73
2022/10/03 06:22:02;;;;;;;;;;;;;;;18.31;47.05;99596.84;5104218;28;19912;-73
2022/10/03 06:24:46;;;;;;;;;;;;;;;18.31;47.16;99590.69;5104209;28;19916;-74
2022/10/03 06:27:30;;;;;;;;;;;;;;;18.54;46.54;99596.28;5104312;28;20194;-74
2022/10/03 06:30:02;;;;;;;;;;;;;;;18.61;45.86;99607.81;5104187;28;19920;-74
2022/10/03 06:32:27;;;;;;;;;;;;;;;18.70;45.76;99611.06;5103031;28;19912;-74
2022/10/03 06:34:55;;;;;;;;;;;;;;;18.93;45.15;99607.81;5104036;28;20192;-73
2022/10/03 06:37:21;;;;;;;;;;;;;;;19.21;44.27;99605.50;5104179;28;19912;-74
2022/10/03 06:40:05;;;;;;;;;;;;;;;19.39;43.61;99605.50;5103968;28;20170;-74
2022/10/03 06:42:48;;;;;;;;;;;;;;;19.59;42.87;99604.50;5104059;28;19911;-74
2022/10/03 06:45:23;;;;;;;;;;;;;;;19.63;42.98;99609.19;5103801;28;20105;-73
2022/10/03 06:47:48;;;;;;;;;;;;;;;20.02;41.75;99602.56;5103990;28;19912;-74
2022/10/03 06:50:23;;;;;;;;;;;;;;;20.42;41.38;99601.22;5099732;28;20229;-74
2022/10/03 06:53:15;;;;;;;;;;;;;;;20.91;40.44;99598.19;5101002;28;20218;-75
2022/10/03 06:56:00;;;;;;;;;;;;;;;21.13;39.24;99587.66;5098642;28;19922;-74
2022/10/03 06:58:43;;;;;;;;;;;;;;;21.38;38.89;99583.91;5098326;28;19916;-74
2022/10/03 07:01:27;;;;;;;;;;;;;;;21.80;37.46;99576.44;5098198;28;19916;-74
2022/10/03 07:03:53;;;;;;;;;;;;;;;22.01;37.09;99572.31;5094575;28;19920;-74
2022/10/03 07:06:33;;;;;;;;;;;;;;;22.20;36.43;99579.16;5100723;28;19969;-74
2022/10/03 07:09:01;;;;;;;;;;;;;;;21.96;36.50;99567.63;5099733;28;19916;-74
2022/10/03 07:11:29;;;;;;;;;;;;;;;21.86;37.38;99562.88;5100343;28;19935;-74
2022/10/03 07:14:14;;;;;;;;;;;;;;;21.84;37.77;99564.94;5099671;28;20256;-74
2022/10/03 07:16:40;;;;;;;;;;;;;;;21.72;37.46;99558.78;5098991;28;20194;-74
2022/10/03 07:19:05;;;;;;;;;;;;;;;21.82;37.08;99550.91;5100362;28;19954;-74
2022/10/03 07:21:41;;;;;;;;;;;;;;;22.14;37.24;99556.69;5099067;28;19968;-74
2022/10/03 07:24:24;;;;;;;;;;;;;;;22.49;36.38;99561.88;5098384;28;19987;-74
2022/10/03 07:27:04;;;;;;;;;;;;;;;22.70;36.48;99562.22;5097936;28;19916;-74
2022/10/03 07:29:49;;;;;;;;;;;;;;;23.01;36.35;99560.88;5098848;28;20125;-74
2022/10/03 07:32:27;;;;;;;;;;;;;;;23.02;35.28;99555.22;5098219;28;19912;-73
2022/10/03 07:35:05;;;;;;;;;;;;;;;23.39;34.10;99554.66;5099043;28;19923;-73
2022/10/03 07:40:23;;;;;;;;;;;;;;;23.62;33.64;99542.81;5098698;28;20274;-73
2022/10/03 07:43:03;;;;;;;;;;;;;;;23.67;33.59;99540.97;5114225;28;19924;-73
2022/10/03 07:45:54;;;;;;;;;;;;;;;23.54;34.31;99541.34;5098463;28;19916;-73
2022/10/03 07:48:23;;;;;;;;;;;;;;;23.65;35.25;99547.72;5082964;28;20263;-73
2022/10/03 07:50:51;;;;;;;;;;;;;;;23.62;34.91;99557.13;5098569;28;21285;-73
2022/10/03 07:53:20;;;;;;;;;;;;;;;23.40;35.41;99562.50;5098711;28;19912;-73
2022/10/03 07:55:59;;;;;;;;;;;;;;;23.33;35.49;99555.66;5096344;28;19928;-73
2022/10/03 07:58:48;;;;;;;;;;;;;;;23.35;34.54;99551.63;5099656;28;19927;-73
2022/10/03 08:01:16;;;;;;;;;;;;;;;23.39;35.33;99560.88;5078632;28;19916;-73
2022/10/03 08:03:53;;;;;;;;;;;;;;;23.54;35.37;99560.25;5099222;28;19912;-73
2022/10/03 08:06:22;;;;;;;;;;;;;;;23.48;35.36;99558.56;5099330;28;20062;-73
2022/10/03 08:09:05;;;;;;;;;;;;;;;23.61;35.02;99560.91;5098377;28;20200;-73
2022/10/03 08:11:46;;;;;;;;;;;;;;;23.50;35.65;99565.34;5098422;28;19916;-73
2022/10/03 08:14:17;;;;;;;;;;;;;;;23.38;35.29;99556.53;5098708;28;20197;-73
2022/10/03 08:17:01;;;;;;;;;;;;;;;23.32;36.79;99556.72;5096761;28;20153;-73
2022/10/03 08:19:42;;;;;;;;;;;;;;;23.06;36.81;99532.06;5097669;28;20141;-73
2022/10/03 08:22:13;;;;;;;;;;;;;;;23.13;36.18;99567.00;5097127;28;19911;-73
2022/10/03 08:24:51;;;;;;;;;;;;;;;22.91;36.39;99566.94;5093435;28;19926;-73
2022/10/03 08:27:42;;;;;;;;;;;;;;;22.84;36.50;99566.25;5097367;28;20174;-73
2022/10/03 08:30:14;;;;;;;;;;;;;;;22.64;37.18;99566.72;5096477;28;19916;-73
2022/10/03 08:32:42;;;;;;;;;;;;;;;22.58;37.12;99570.38;5098248;28;19912;-74
2022/10/03 08:35:26;;;;;;;;;;;;;;;22.58;37.22;99570.38;5097805;28;19916;-73
2022/10/03 08:38:08;;;;;;;;;;;;;;;22.43;37.14;99556.66;5098597;28;19916;-73
2022/10/03 08:40:55;;;;;;;;;;;;;;;22.42;37.25;99561.22;5091170;28;20114;-73
2022/10/03 08:43:39;;;;;;;;;;;;;;;22.28;37.88;99555.31;5098698;28;19943;-73
2022/10/03 08:46:04;;;;;;;;;;;;;;;22.27;37.79;99559.06;5098452;28;19930;-73
2022/10/03 08:48:42;;;;;;;;;;;;;;;22.31;37.79;99567.50;5098149;28;19912;-73
2022/10/03 08:51:42;;;;;;;;;;;;;;;22.36;38.02;99566.78;5099297;28;19916;-73
2022/10/03 08:54:26;;;;;;;;;;;;;;;21.97;38.00;99562.00;5117654;28;20301;-73
2022/10/03 08:56:51;;;;;;;;;;;;;;;21.98;38.23;99562.81;5101459;28;19983;-73
2022/10/03 08:59:36;;;;;;;;;;;;;;;21.86;39.06;99573.66;5101868;28;20151;-73
2022/10/03 09:02:01;;;;;;;;;;;;;;;21.85;38.60;99555.00;5101642;28;19983;-73
2022/10/03 09:04:50;;;;;;;;;;;;;;;21.83;39.45;99576.78;5100975;28;20117;-73
2022/10/03 09:07:34;;;;;;;;;;;;;;;21.86;39.09;99570.13;5101694;28;19912;-73
2022/10/03 09:10:29;;;;;;;;;;;;;;;21.86;39.26;99579.03;5101565;28;19920;-74
2022/10/03 09:13:00;;;;;;;;;;;;;;;21.79;39.22;99574.81;5101306;28;19951;-74
2022/10/03 09:15:44;;;;;;;;;;;;;;;21.70;39.33;99578.94;5101591;28;20260;-73
2022/10/03 09:18:10;;;;;;;;;;;;;;;21.76;39.49;99570.72;5101584;28;19912;-73
2022/10/03 09:20:35;;;;;;;;;;;;;;;21.78;39.39;99586.66;5100845;28;19926;-73
2022/10/03 09:23:09;;;;;;;;;;;;;;;21.88;39.51;99576.91;5101476;28;19975;-74
2022/10/03 09:25:35;;;;;;;;;;;;;;;21.93;39.66;99582.41;5101385;28;19923;-73
2022/10/03 09:28:03;;;;;;;;;;;;;;;21.98;39.42;99574.41;5101321;28;19951;-73
2022/10/03 09:30:41;;;;;;;;;;;;;;;21.93;40.02;99574.31;5101409;28;20206;-73
2022/10/03 09:33:23;;;;;;;;;;;;;;;21.73;40.47;99579.28;5100233;28;19916;-73
2022/10/03 09:36:07;;;;;;;;;;;;;;;21.70;41.43;99579.75;5099732;28;19916;-73
2022/10/03 09:38:51;;;;;;;;;;;;;;;21.81;41.94;99583.47;5101328;28;19978;-73
2022/10/03 09:41:28;;;;;;;;;;;;;;;21.73;43.35;99573.06;5101300;28;19951;-73
2022/10/03 09:44:12;;;;;;;;;;;;;;;21.64;43.75;99570.75;5101699;28;19912;-73
2022/10/03 09:49:49;;;;;;;;;;;;;;;21.55;45.24;99582.13;5104251;28;19953;-73
2022/10/03 09:52:33;;;;;;;;;;;;;;;21.56;45.34;99589.97;5104964;28;19919;-73
2022/10/03 09:55:09;;;;;;;;;;;;;;;21.43;45.76;99584.84;5105636;28;19916;-73
2022/10/03 09:57:41;;;;;;;;;;;;;;;21.50;46.04;99579.34;5120514;28;19919;-73
2022/10/03 10:00:18;;;;;;;;;;;;;;;21.40;46.49;99574.56;5104889;28;19951;-73
2022/10/03 10:02:50;;;;;;;;;;;;;;;21.40;46.79;99577.25;5104948;28;19916;-73
2022/10/03 10:05:18;;;;;;;;;;;;;;;21.29;47.75;99578.06;5104478;28;19916;-73
2022/10/03 10:07:43;;;;;;;;;;;;;;;21.17;48.42;99590.69;5104786;28;19912;-73
2022/10/03 10:10:27;;;;;;;;;;;;;;;21.16;48.72;99591.75;5111253;28;19923;-73
2022/10/03 10:13:10;;;;;;;;;;;;;;;21.14;48.74;99586.59;5104637;28;19911;-73
2022/10/03 10:15:54;;;;;;;;;;;;;;;20.82;50.43;99602.25;5104492;28;19962;-73
2022/10/03 10:18:39;;;;;;;;;;;;;;;20.81;52.01;99603.31;5104520;28;19916;-74
2022/10/03 10:21:16;;;;;;;;;;;;;;;20.90;53.43;99604.63;5103145;28;19916;-73
2022/10/03 10:24:02;;;;;;;;;;;;;;;20.68;54.20;99595.44;5111709;28;19983;-73
2022/10/03 10:26:56;;;;;;;;;;;;;;;20.53;54.49;99603.13;5104303;28;19916;-73
2022/10/03 10:29:22;;;;;;;;;;;;;;;20.47;54.75;99607.53;5066138;28;19916;-73
2022/10/03 10:32:19;;;;;;;;;;;;;;;20.43;57.35;99614.44;5103490;28;20102;-73
2022/10/03 10:34:57;;;;;;;;;;;;;;;20.53;57.83;99624.63;5080721;28;19923;-73
2022/10/03 10:37:41;;;;;;;;;;;;;;;20.35;58.88;99620.09;5103082;28;19911;-74
2022/10/03 10:40:25;;;;;;;;;;;;;;;20.16;59.52;99630.06;5104145;28;19916;-73
2022/10/03 10:42:50;;;;;;;;;;;;;;;19.99;64.08;99642.50;5103071;28;20186;-73
2022/10/03 10:45:35;;;;;;;;;;;;;;;19.44;70.55;99653.16;5103841;28;19951;-73
2022/10/03 10:48:20;;;;;;;;;;;;;;;19.41;69.64;99662.50;5102486;28;19911;-73
2022/10/03 10:50:51;;;;;;;;;;;;;;;19.39;70.02;99672.63;5103623;28;20882;-73
2022/10/03 10:53:38;;;;;;;;;;;;;;;19.67;66.33;99674.03;5104092;28;19974;-73
2022/10/03 10:56:27;;;;;;;;;;;;;;;19.66;65.17;99672.41;5118130;28;19986;-73
2022/10/03 10:58:58;;;;;;;;;;;;;;;19.53;69.82;99673.34;5072125;28;20095;-73
2022/10/03 11:01:23;;;;;;;;;;;;;;;19.64;70.07;99669.94;5103791;28;19978;-73
2022/10/03 11:04:07;;;;;;;;;;;;;;;19.61;71.02;99680.31;5104070;28;19915;-73
2022/10/03 11:06:32;;;;;;;;;;;;;;;19.81;71.65;99672.88;5102731;28;19923;-73
2022/10/03 11:09:04;;;;;;;;;;;;;;;20.02;72.01;99677.00;5103705;28;19912;-73
2022/10/03 11:11:32;;;;;;;;;;;;;;;20.02;72.94;99661.69;5103361;28;19943;-73
2022/10/03 11:14:10;;;;;;;;;;;;;;;20.16;74.91;99658.81;5103854;28;19916;-73
2022/10/03 11:16:41;;;;;;;;;;;;;;;20.06;72.21;99664.75;5101907;28;20173;-73
2022/10/03 11:19:12;;;;;;;;;;;;;;;20.08;72.27;99668.03;5103613;28;19960;-73
2022/10/03 11:21:44;;;;;;;;;;;;;;;20.20;69.41;99658.16;5103146;28;19939;-73
2022/10/03 11:24:24;;;;;;;;;;;;;;;20.26;67.29;99653.72;5103085;28;19921;-73
2022/10/03 11:26:55;;;;;;;;;;;;;;;20.42;66.45;99653.13;5101739;28;19924;-73
2022/10/03 11:29:20;;;;;;;;;;;;;;;20.57;65.16;99642.78;5102938;28;20016;-73
2022/10/03 11:32:07;;;;;;;;;;;;;;;20.68;64.14;99644.69;5103001;28;20026;-73
2022/10/03 11:34:47;;;;;;;;;;;;;;;20.73;62.09;99623.28;5102841;28;20054;-73
2022/10/03 11:37:15;;;;;;;;;;;;;;;20.78;62.37;99643.28;5102853;28;19957;-73
2022/10/03 11:39:52;;;;;;;;;;;;;;;20.91;62.19;99646.63;5102775;28;19923;-73
2022/10/03 11:42:31;;;;;;;;;;;;;;;20.77;61.04;99647.84;5107523;28;19987;-73
2022/10/03 11:44:58;;;;;;;;;;;;;;;20.64;60.45;99637.28;5100444;28;19920;-73
2022/10/03 11:47:33;;;;;;;;;;;;;;;20.56;61.08;99637.63;5102625;28;19989;-73
2022/10/03 11:50:13;;;;;;;;;;;;;;;20.77;61.07;99633.56;5102622;28;19982;-73
2022/10/03 11:52:58;;;;;;;;;;;;;;;20.84;61.19;99628.94;5102775;28;19919;-73
2022/10/03 11:55:29;;;;;;;;;;;;;;;20.71;60.61;99630.75;5102252;28;19916;-73
2022/10/03 11:58:17;;;;;;;;;;;;;;;20.72;60.84;99636.97;5102478;28;20106;-73
2022/10/03 12:00:45;;;;;;;;;;;;;;;20.64;60.44;99629.22;5102806;28;19924;-73
2022/10/03 12:03:12;;;;;;;;;;;;;;;20.63;59.93;99624.91;5102859;28;19912;-73
2022/10/03 12:05:40;;;;;;;;;;;;;;;20.56;59.19;99616.09;5113812;28;19916;-73
2022/10/03 12:11:10;;;;;;;;;;;;;;;20.64;59.10;99621.16;5102146;28;19923;-73
2022/10/03 12:13:54;;;;;;;;;;;;;;;20.80;59.36;99619.66;5102590;28;19943;-73
2022/10/03 12:16:26;;;;;;;;;;;;;;;20.68;55.18;99607.00;5118017;28;19944;-73
2022/10/03 12:18:54;;;;;;;;;;;;;;;20.59;54.23;99607.56;5102720;28;19915;-73
2022/10/03 12:21:38;;;;;;;;;;;;;;;20.59;54.51;99610.25;5102002;28;19916;-73
2022/10/03 12:24:14;;;;;;;;;;;;;;;20.72;54.89;99616.25;5102744;28;19911;-73
2022/10/03 12:26:42;;;;;;;;;;;;;;;20.91;53.91;99617.03;5101990;28;19922;-73
2022/10/03 12:29:10;;;;;;;;;;;;;;;20.92;52.96;99599.00;5102603;28;19919;-73
2022/10/03 12:31:56;;;;;;;;;;;;;;;20.95;53.38;99609.31;5101881;28;19947;-73
2022/10/03 12:34:30;;;;;;;;;;;;;;;20.94;52.58;99607.66;5081124;28;19916;-73
2022/10/03 12:37:14;;;;;;;;;;;;;;;21.02;52.43;99608.13;5100861;28;19919;-73
2022/10/03 12:39:49;;;;;;;;;;;;;;;21.03;51.72;99609.78;5102266;28;19950;-73
2022/10/03 12:42:32;;;;;;;;;;;;;;;20.91;51.82;99605.44;5101909;28;19918;-73
2022/10/03 12:45:13;;;;;;;;;;;;;;;21.03;51.21;99615.16;5102084;28;19916;-73
2022/10/03 12:48:01;;;;;;;;;;;;;;;20.94;51.55;99605.78;5102152;28;19919;-73
2022/10/03 12:50:27;;;;;;;;;;;;;;;20.79;52.53;99607.25;5099749;28;19920;-73
2022/10/03 12:53:14;;;;;;;;;;;;;;;20.79;52.84;99593.81;5097907;28;19912;-73
2022/10/03 12:55:44;;;;;;;;;;;;;;;20.87;52.52;99602.38;5097873;28;19916;-73
2022/10/03 12:58:15;;;;;;;;;;;;;;;20.89;51.72;99592.22;5098090;28;19919;-73
2022/10/03 13:00:57;;;;;;;;;;;;;;;20.94;50.85;99599.59;5097943;28;19954;-73
2022/10/03 13:03:24;;;;;;;;;;;;;;;20.97;51.70;99601.81;5098533;28;19912;-73
2022/10/03 13:06:04;;;;;;;;;;;;;;;21.15;51.19;99603.56;5097413;28;19924;-73
2022/10/03 13:08:53;;;;;;;;;;;;;;;21.03;50.75;99590.94;5097570;28;20012;-73
2022/10/03 13:11:18;;;;;;;;;;;;;;;21.12;49.08;99587.88;5093885;28;19916;-73
2022/10/03 13:13:52;;;;;;;;;;;;;;;21.17;48.79;99586.13;5098182;28;20267;-73
2022/10/03 13:16:44;;;;;;;;;;;;;;;21.27;48.14;99583.69;5097346;28;19935;-73
2022/10/03 13:19:26;;;;;;;;;;;;;;;21.27;47.72;99578.31;5064874;28;20184;-73
2022/10/03 13:21:51;;;;;;;;;;;;;;;21.13;47.41;99584.16;5098694;28;21109;-73
2022/10/03 13:24:32;;;;;;;;;;;;;;;21.18;46.19;99585.06;5101574;28;19923;-73
2022/10/03 13:27:16;;;;;;;;;;;;;;;21.21;47.14;99584.59;5101355;28;19912;-73
2022/10/03 13:29:44;;;;;;;;;;;;;;;21.11;46.56;99592.44;5101047;28;19973;-73
2022/10/03 13:32:32;;;;;;;;;;;;;;;21.18;47.66;99590.47;5101309;28;19911;-73
2022/10/03 13:38:07;;;;;;;;;;;;;;;21.17;47.26;99590.69;5090442;28;19943;-73
2022/10/03 13:40:36;;;;;;;;;;;;;;;21.22;47.77;99593.50;5080642;28;20185;-73
2022/10/03 13:43:03;;;;;;;;;;;;;;;21.30;48.07;99593.19;5101258;28;19919;-73
2022/10/03 13:45:29;;;;;;;;;;;;;;;21.16;48.32;99591.75;5105303;28;19916;-73
2022/10/03 13:47:58;;;;;;;;;;;;;;;20.99;48.26;99597.00;5101528;28;20073;-73
2022/10/03 13:50:30;;;;;;;;;;;;;;;20.96;47.75;99597.47;5116473;28;21433;-73